sensor_id;sensor_type;location;lat;lon;timestamp;temperature;humidity
32394;DHT22;18853;45.426;9.206;2022-11-24T00:01:11;13.10;54.80
32394;DHT22;18853;45.426;9.206;2022-11-24T00:03:39;13.10;54.80
32394;DHT22;18853;45.426;9.206;2022-11-24T00:06:07;13.10;54.70
32394;DHT22;18853;45.426;9.206;2022-11-24T00:08:37;13.10;54.60
32394;DHT22;18853;45.426;9.206;2022-11-24T00:11:09;13.10;54.50
32394;DHT22;18853;45.426;9.206;2022-11-24T00:13:36;13.10;54.30
32394;DHT22;18853;45.426;9.206;2022-11-24T00:16:15;13.10;54.40
32394;DHT22;18853;45.426;9.206;2022-11-24T00:18:43;13.10;54.40
32394;DHT22;18853;45.426;9.206;2022-11-24T00:21:10;13.00;54.30
32394;DHT22;18853;45.426;9.206;2022-11-24T00:23:36;13.10;54.20
32394;DHT22;18853;45.426;9.206;2022-11-24T00:26:08;13.10;54.20
32394;DHT22;18853;45.426;9.206;2022-11-24T00:28:35;13.10;54.10
32394;DHT22;18853;45.426;9.206;2022-11-24T00:31:01;13.10;53.90
32394;DHT22;18853;45.426;9.206;2022-11-24T00:33:27;13.10;53.80
32394;DHT22;18853;45.426;9.206;2022-11-24T00:35:56;13.10;53.80
32394;DHT22;18853;45.426;9.206;2022-11-24T00:38:23;13.00;53.80
32394;DHT22;18853;45.426;9.206;2022-11-24T00:40:49;13.00;53.80
32394;DHT22;18853;45.426;9.206;2022-11-24T00:43:14;13.10;53.80
32394;DHT22;18853;45.426;9.206;2022-11-24T00:45:41;13.10;53.60
32394;DHT22;18853;45.426;9.206;2022-11-24T00:48:07;13.10;53.50
32394;DHT22;18853;45.426;9.206;2022-11-24T00:50:32;13.10;53.40
32394;DHT22;18853;45.426;9.206;2022-11-24T00:52:58;13.00;53.40
32394;DHT22;18853;45.426;9.206;2022-11-24T00:55:24;13.00;53.30
32394;DHT22;18853;45.426;9.206;2022-11-24T00:57:49;13.00;53.20
32394;DHT22;18853;45.426;9.206;2022-11-24T01:00:16;13.00;53.20
32394;DHT22;18853;45.426;9.206;2022-11-24T01:02:42;13.00;53.10
32394;DHT22;18853;45.426;9.206;2022-11-24T01:05:08;12.90;53.10
32394;DHT22;18853;45.426;9.206;2022-11-24T01:07:33;13.00;53.00
32394;DHT22;18853;45.426;9.206;2022-11-24T01:09:59;13.00;52.70
32394;DHT22;18853;45.426;9.206;2022-11-24T01:12:24;13.00;52.60
32394;DHT22;18853;45.426;9.206;2022-11-24T01:14:50;13.00;52.40
32394;DHT22;18853;45.426;9.206;2022-11-24T01:17:15;13.00;52.50
32394;DHT22;18853;45.426;9.206;2022-11-24T01:19:41;12.90;52.20
32394;DHT22;18853;45.426;9.206;2022-11-24T01:22:07;12.90;52.10
32394;DHT22;18853;45.426;9.206;2022-11-24T01:24:32;12.90;52.20
32394;DHT22;18853;45.426;9.206;2022-11-24T01:26:59;12.90;52.30
32394;DHT22;18853;45.426;9.206;2022-11-24T01:29:24;13.00;51.90
32394;DHT22;18853;45.426;9.206;2022-11-24T01:31:50;13.00;51.80
32394;DHT22;18853;45.426;9.206;2022-11-24T01:34:16;13.00;51.60
32394;DHT22;18853;45.426;9.206;2022-11-24T01:36:41;13.00;51.60
32394;DHT22;18853;45.426;9.206;2022-11-24T01:39:07;12.90;51.60
32394;DHT22;18853;45.426;9.206;2022-11-24T01:41:33;12.90;51.80
32394;DHT22;18853;45.426;9.206;2022-11-24T01:44:00;12.80;51.90
32394;DHT22;18853;45.426;9.206;2022-11-24T01:46:33;12.70;52.30
32394;DHT22;18853;45.426;9.206;2022-11-24T01:49:15;12.70;52.20
32394;DHT22;18853;45.426;9.206;2022-11-24T01:51:49;12.60;52.20
32394;DHT22;18853;45.426;9.206;2022-11-24T01:54:37;12.50;52.50
32394;DHT22;18853;45.426;9.206;2022-11-24T01:57:16;12.50;52.10
32394;DHT22;18853;45.426;9.206;2022-11-24T01:59:46;12.40;52.30
32394;DHT22;18853;45.426;9.206;2022-11-24T02:02:13;12.30;52.50
32394;DHT22;18853;45.426;9.206;2022-11-24T02:04:39;12.20;52.50
32394;DHT22;18853;45.426;9.206;2022-11-24T02:07:06;12.20;52.50
32394;DHT22;18853;45.426;9.206;2022-11-24T02:09:54;12.20;52.50
32394;DHT22;18853;45.426;9.206;2022-11-24T02:12:21;12.20;52.40
32394;DHT22;18853;45.426;9.206;2022-11-24T02:14:48;12.10;52.40
32394;DHT22;18853;45.426;9.206;2022-11-24T02:17:15;12.10;52.30
32394;DHT22;18853;45.426;9.206;2022-11-24T02:27:45;12.10;52.40
32394;DHT22;18853;45.426;9.206;2022-11-24T02:30:11;12.00;52.80
32394;DHT22;18853;45.426;9.206;2022-11-24T02:32:39;12.00;52.90
32394;DHT22;18853;45.426;9.206;2022-11-24T02:35:07;11.90;53.00
32394;DHT22;18853;45.426;9.206;2022-11-24T02:37:33;11.90;53.00
32394;DHT22;18853;45.426;9.206;2022-11-24T02:39:59;11.80;53.70
32394;DHT22;18853;45.426;9.206;2022-11-24T02:42:25;11.80;53.30
32394;DHT22;18853;45.426;9.206;2022-11-24T02:44:55;11.80;53.20
32394;DHT22;18853;45.426;9.206;2022-11-24T02:47:23;11.70;53.10
32394;DHT22;18853;45.426;9.206;2022-11-24T02:49:48;11.70;53.20
32394;DHT22;18853;45.426;9.206;2022-11-24T02:52:14;11.60;53.90
32394;DHT22;18853;45.426;9.206;2022-11-24T02:54:40;11.60;53.40
32394;DHT22;18853;45.426;9.206;2022-11-24T02:57:06;11.60;53.30
32394;DHT22;18853;45.426;9.206;2022-11-24T02:59:31;11.60;53.20
32394;DHT22;18853;45.426;9.206;2022-11-24T03:01:57;11.60;53.10
32394;DHT22;18853;45.426;9.206;2022-11-24T03:04:22;11.60;53.00
32394;DHT22;18853;45.426;9.206;2022-11-24T03:06:48;11.70;52.90
32394;DHT22;18853;45.426;9.206;2022-11-24T03:09:14;11.50;52.80
32394;DHT22;18853;45.426;9.206;2022-11-24T03:11:39;11.50;52.90
32394;DHT22;18853;45.426;9.206;2022-11-24T03:14:05;11.40;52.80
32394;DHT22;18853;45.426;9.206;2022-11-24T03:16:31;11.40;52.80
32394;DHT22;18853;45.426;9.206;2022-11-24T03:18:57;11.40;52.90
32394;DHT22;18853;45.426;9.206;2022-11-24T03:21:23;11.40;53.00
32394;DHT22;18853;45.426;9.206;2022-11-24T03:23:48;11.40;53.00
32394;DHT22;18853;45.426;9.206;2022-11-24T03:26:16;11.30;53.00
32394;DHT22;18853;45.426;9.206;2022-11-24T03:28:43;11.30;53.20
32394;DHT22;18853;45.426;9.206;2022-11-24T03:31:09;11.30;53.20
32394;DHT22;18853;45.426;9.206;2022-11-24T03:33:35;11.30;53.10
32394;DHT22;18853;45.426;9.206;2022-11-24T03:36:01;11.40;52.80
32394;DHT22;18853;45.426;9.206;2022-11-24T03:38:27;11.40;52.50
32394;DHT22;18853;45.426;9.206;2022-11-24T03:40:53;11.50;52.30
32394;DHT22;18853;45.426;9.206;2022-11-24T03:43:18;11.60;52.20
32394;DHT22;18853;45.426;9.206;2022-11-24T03:45:45;11.60;52.00
32394;DHT22;18853;45.426;9.206;2022-11-24T03:48:11;11.60;52.10
32394;DHT22;18853;45.426;9.206;2022-11-24T03:50:36;11.50;52.10
32394;DHT22;18853;45.426;9.206;2022-11-24T03:53:02;11.50;52.00
32394;DHT22;18853;45.426;9.206;2022-11-24T03:55:27;11.40;52.10
32394;DHT22;18853;45.426;9.206;2022-11-24T03:57:53;11.40;52.10
32394;DHT22;18853;45.426;9.206;2022-11-24T04:00:19;11.40;51.90
32394;DHT22;18853;45.426;9.206;2022-11-24T04:02:44;11.40;51.70
32394;DHT22;18853;45.426;9.206;2022-11-24T04:05:10;11.40;51.60
32394;DHT22;18853;45.426;9.206;2022-11-24T04:07:35;11.30;51.50
32394;DHT22;18853;45.426;9.206;2022-11-24T04:10:01;11.30;51.60
32394;DHT22;18853;45.426;9.206;2022-11-24T04:12:26;11.30;51.40
32394;DHT22;18853;45.426;9.206;2022-11-24T04:15:15;11.20;52.20
32394;DHT22;18853;45.426;9.206;2022-11-24T04:17:42;11.10;51.80
32394;DHT22;18853;45.426;9.206;2022-11-24T04:20:09;11.10;51.70
32394;DHT22;18853;45.426;9.206;2022-11-24T04:22:35;11.10;51.50
32394;DHT22;18853;45.426;9.206;2022-11-24T04:25:01;11.10;51.50
32394;DHT22;18853;45.426;9.206;2022-11-24T04:27:27;11.00;51.40
32394;DHT22;18853;45.426;9.206;2022-11-24T04:29:53;11.10;51.50
32394;DHT22;18853;45.426;9.206;2022-11-24T04:32:19;11.10;51.50
32394;DHT22;18853;45.426;9.206;2022-11-24T04:34:44;11.10;51.50
32394;DHT22;18853;45.426;9.206;2022-11-24T04:37:10;11.10;51.40
32394;DHT22;18853;45.426;9.206;2022-11-24T04:39:36;11.10;51.20
32394;DHT22;18853;45.426;9.206;2022-11-24T04:42:01;11.10;51.20
32394;DHT22;18853;45.426;9.206;2022-11-24T04:44:27;11.00;51.10
32394;DHT22;18853;45.426;9.206;2022-11-24T04:46:52;10.90;51.30
32394;DHT22;18853;45.426;9.206;2022-11-24T04:49:18;10.80;51.30
32394;DHT22;18853;45.426;9.206;2022-11-24T04:51:44;10.70;51.40
32394;DHT22;18853;45.426;9.206;2022-11-24T04:54:11;10.60;51.60
32394;DHT22;18853;45.426;9.206;2022-11-24T04:56:38;10.60;51.70
32394;DHT22;18853;45.426;9.206;2022-11-24T04:59:05;10.50;51.90
32394;DHT22;18853;45.426;9.206;2022-11-24T05:01:31;10.50;52.00
32394;DHT22;18853;45.426;9.206;2022-11-24T05:03:57;10.40;52.00
32394;DHT22;18853;45.426;9.206;2022-11-24T05:06:23;10.40;52.10
32394;DHT22;18853;45.426;9.206;2022-11-24T05:08:50;10.40;52.20
32394;DHT22;18853;45.426;9.206;2022-11-24T05:11:17;10.40;52.20
32394;DHT22;18853;45.426;9.206;2022-11-24T05:13:42;10.40;52.10
32394;DHT22;18853;45.426;9.206;2022-11-24T05:16:08;10.50;52.00
32394;DHT22;18853;45.426;9.206;2022-11-24T05:18:34;10.50;52.00
32394;DHT22;18853;45.426;9.206;2022-11-24T05:21:00;10.50;51.90
32394;DHT22;18853;45.426;9.206;2022-11-24T05:23:26;10.50;52.00
32394;DHT22;18853;45.426;9.206;2022-11-24T05:25:52;10.50;52.00
32394;DHT22;18853;45.426;9.206;2022-11-24T05:28:18;10.50;51.90
32394;DHT22;18853;45.426;9.206;2022-11-24T05:30:44;10.50;52.00
32394;DHT22;18853;45.426;9.206;2022-11-24T05:33:12;10.40;52.10
32394;DHT22;18853;45.426;9.206;2022-11-24T05:35:48;10.40;52.20
32394;DHT22;18853;45.426;9.206;2022-11-24T05:38:14;10.40;52.30
32394;DHT22;18853;45.426;9.206;2022-11-24T05:40:40;10.30;52.20
32394;DHT22;18853;45.426;9.206;2022-11-24T05:43:13;10.30;52.20
32394;DHT22;18853;45.426;9.206;2022-11-24T05:45:39;10.40;52.10
32394;DHT22;18853;45.426;9.206;2022-11-24T05:48:06;10.30;52.10
32394;DHT22;18853;45.426;9.206;2022-11-24T05:50:33;10.30;52.20
32394;DHT22;18853;45.426;9.206;2022-11-24T05:53:04;10.20;52.20
32394;DHT22;18853;45.426;9.206;2022-11-24T05:55:30;10.30;52.30
32394;DHT22;18853;45.426;9.206;2022-11-24T05:57:58;10.20;52.20
32394;DHT22;18853;45.426;9.206;2022-11-24T06:00:24;10.20;52.10
32394;DHT22;18853;45.426;9.206;2022-11-24T06:02:49;10.20;52.00
32394;DHT22;18853;45.426;9.206;2022-11-24T06:05:15;10.20;52.50
32394;DHT22;18853;45.426;9.206;2022-11-24T06:07:41;10.20;51.90
32394;DHT22;18853;45.426;9.206;2022-11-24T06:10:07;10.20;52.00
32394;DHT22;18853;45.426;9.206;2022-11-24T06:12:32;10.20;51.90
32394;DHT22;18853;45.426;9.206;2022-11-24T06:14:58;10.30;51.60
32394;DHT22;18853;45.426;9.206;2022-11-24T06:17:24;10.30;51.70
32394;DHT22;18853;45.426;9.206;2022-11-24T06:19:49;10.30;51.70
32394;DHT22;18853;45.426;9.206;2022-11-24T06:22:16;10.30;51.70
32394;DHT22;18853;45.426;9.206;2022-11-24T06:24:43;10.30;51.60
32394;DHT22;18853;45.426;9.206;2022-11-24T06:27:10;10.20;51.90
32394;DHT22;18853;45.426;9.206;2022-11-24T06:29:37;10.10;51.90
32394;DHT22;18853;45.426;9.206;2022-11-24T06:32:03;10.10;52.00
32394;DHT22;18853;45.426;9.206;2022-11-24T06:34:29;10.10;52.00
32394;DHT22;18853;45.426;9.206;2022-11-24T06:36:54;10.20;52.00
32394;DHT22;18853;45.426;9.206;2022-11-24T06:39:20;10.10;52.00
32394;DHT22;18853;45.426;9.206;2022-11-24T06:41:46;10.10;52.20
32394;DHT22;18853;45.426;9.206;2022-11-24T06:44:13;10.10;52.20
32394;DHT22;18853;45.426;9.206;2022-11-24T06:46:39;10.10;52.20
32394;DHT22;18853;45.426;9.206;2022-11-24T06:49:04;10.10;52.30
32394;DHT22;18853;45.426;9.206;2022-11-24T06:51:30;10.00;52.40
32394;DHT22;18853;45.426;9.206;2022-11-24T06:53:56;10.00;52.50
32394;DHT22;18853;45.426;9.206;2022-11-24T06:56:21;9.90;52.70
32394;DHT22;18853;45.426;9.206;2022-11-24T06:58:49;9.80;52.90
32394;DHT22;18853;45.426;9.206;2022-11-24T07:01:17;9.80;53.10
32394;DHT22;18853;45.426;9.206;2022-11-24T07:03:43;9.70;53.10
32394;DHT22;18853;45.426;9.206;2022-11-24T07:06:09;9.70;53.20
32394;DHT22;18853;45.426;9.206;2022-11-24T07:08:35;9.70;53.10
32394;DHT22;18853;45.426;9.206;2022-11-24T07:11:05;9.60;53.20
32394;DHT22;18853;45.426;9.206;2022-11-24T07:13:30;9.60;53.30
32394;DHT22;18853;45.426;9.206;2022-11-24T07:15:56;9.60;53.30
32394;DHT22;18853;45.426;9.206;2022-11-24T07:18:22;9.70;53.20
32394;DHT22;18853;45.426;9.206;2022-11-24T07:20:47;9.70;53.20
32394;DHT22;18853;45.426;9.206;2022-11-24T07:23:13;9.70;53.20
32394;DHT22;18853;45.426;9.206;2022-11-24T07:25:38;9.70;53.10
32394;DHT22;18853;45.426;9.206;2022-11-24T07:28:04;9.80;53.10
32394;DHT22;18853;45.426;9.206;2022-11-24T07:30:30;9.80;52.90
32394;DHT22;18853;45.426;9.206;2022-11-24T07:33:00;9.90;53.30
32394;DHT22;18853;45.426;9.206;2022-11-24T07:35:26;9.90;52.80
32394;DHT22;18853;45.426;9.206;2022-11-24T07:37:56;9.90;52.70
32394;DHT22;18853;45.426;9.206;2022-11-24T07:40:22;10.00;52.60
32394;DHT22;18853;45.426;9.206;2022-11-24T07:42:48;10.00;52.50
32394;DHT22;18853;45.426;9.206;2022-11-24T07:45:14;10.10;52.40
32394;DHT22;18853;45.426;9.206;2022-11-24T07:47:40;10.20;52.10
32394;DHT22;18853;45.426;9.206;2022-11-24T07:50:09;10.20;52.00
32394;DHT22;18853;45.426;9.206;2022-11-24T07:52:35;10.30;52.00
32394;DHT22;18853;45.426;9.206;2022-11-24T07:55:02;10.20;51.90
32394;DHT22;18853;45.426;9.206;2022-11-24T07:57:28;10.30;51.80
32394;DHT22;18853;45.426;9.206;2022-11-24T07:59:54;10.40;51.70
32394;DHT22;18853;45.426;9.206;2022-11-24T08:02:20;10.50;51.40
32394;DHT22;18853;45.426;9.206;2022-11-24T08:04:45;10.60;51.30
32394;DHT22;18853;45.426;9.206;2022-11-24T08:07:11;10.70;51.20
32394;DHT22;18853;45.426;9.206;2022-11-24T08:09:37;10.70;51.00
32394;DHT22;18853;45.426;9.206;2022-11-24T08:12:03;10.80;51.10
32394;DHT22;18853;45.426;9.206;2022-11-24T08:14:28;10.70;51.10
32394;DHT22;18853;45.426;9.206;2022-11-24T08:16:54;10.80;51.00
32394;DHT22;18853;45.426;9.206;2022-11-24T08:19:20;10.90;50.90
32394;DHT22;18853;45.426;9.206;2022-11-24T08:21:46;10.80;50.90
32394;DHT22;18853;45.426;9.206;2022-11-24T08:24:12;10.90;50.90
32394;DHT22;18853;45.426;9.206;2022-11-24T08:26:40;10.90;50.80
32394;DHT22;18853;45.426;9.206;2022-11-24T08:29:06;10.90;50.80
32394;DHT22;18853;45.426;9.206;2022-11-24T08:31:32;11.00;50.60
32394;DHT22;18853;45.426;9.206;2022-11-24T08:33:59;11.10;50.60
32394;DHT22;18853;45.426;9.206;2022-11-24T08:36:25;11.10;50.60
32394;DHT22;18853;45.426;9.206;2022-11-24T08:38:55;11.10;51.20
32394;DHT22;18853;45.426;9.206;2022-11-24T08:41:22;11.20;50.60
32394;DHT22;18853;45.426;9.206;2022-11-24T08:43:47;11.20;50.40
32394;DHT22;18853;45.426;9.206;2022-11-24T08:46:15;11.30;50.40
32394;DHT22;18853;45.426;9.206;2022-11-24T08:48:41;11.30;50.20
32394;DHT22;18853;45.426;9.206;2022-11-24T08:51:10;11.40;50.10
32394;DHT22;18853;45.426;9.206;2022-11-24T08:53:36;11.60;49.80
32394;DHT22;18853;45.426;9.206;2022-11-24T08:56:03;11.60;49.50
32394;DHT22;18853;45.426;9.206;2022-11-24T08:58:29;11.70;49.30
32394;DHT22;18853;45.426;9.206;2022-11-24T09:00:55;11.70;49.20
32394;DHT22;18853;45.426;9.206;2022-11-24T09:03:27;11.80;49.10
32394;DHT22;18853;45.426;9.206;2022-11-24T09:05:53;11.90;49.10
32394;DHT22;18853;45.426;9.206;2022-11-24T09:08:18;11.90;49.10
32394;DHT22;18853;45.426;9.206;2022-11-24T09:10:45;11.90;49.10
32394;DHT22;18853;45.426;9.206;2022-11-24T09:13:11;12.00;49.20
32394;DHT22;18853;45.426;9.206;2022-11-24T09:15:36;12.00;49.10
32394;DHT22;18853;45.426;9.206;2022-11-24T09:18:02;12.00;49.30
32394;DHT22;18853;45.426;9.206;2022-11-24T09:20:28;12.00;49.50
32394;DHT22;18853;45.426;9.206;2022-11-24T09:22:55;12.10;49.60
32394;DHT22;18853;45.426;9.206;2022-11-24T09:25:21;12.10;49.50
32394;DHT22;18853;45.426;9.206;2022-11-24T09:27:48;12.20;49.60
32394;DHT22;18853;45.426;9.206;2022-11-24T09:30:14;12.20;49.50
32394;DHT22;18853;45.426;9.206;2022-11-24T09:32:40;12.20;49.40
32394;DHT22;18853;45.426;9.206;2022-11-24T09:35:06;12.30;49.00
32394;DHT22;18853;45.426;9.206;2022-11-24T09:37:32;12.30;49.00
32394;DHT22;18853;45.426;9.206;2022-11-24T09:39:58;12.30;49.00
32394;DHT22;18853;45.426;9.206;2022-11-24T09:42:41;12.40;48.80
32394;DHT22;18853;45.426;9.206;2022-11-24T09:45:41;12.40;48.20
32394;DHT22;18853;45.426;9.206;2022-11-24T09:48:12;12.50;48.20
32394;DHT22;18853;45.426;9.206;2022-11-24T09:50:40;12.40;48.20
32394;DHT22;18853;45.426;9.206;2022-11-24T09:56:02;12.60;47.90
32394;DHT22;18853;45.426;9.206;2022-11-24T09:58:58;12.60;48.80
32394;DHT22;18853;45.426;9.206;2022-11-24T10:01:30;12.70;48.20
32394;DHT22;18853;45.426;9.206;2022-11-24T10:03:57;12.70;48.40
32394;DHT22;18853;45.426;9.206;2022-11-24T10:06:25;12.70;48.40
32394;DHT22;18853;45.426;9.206;2022-11-24T10:19:50;12.90;48.60
32394;DHT22;18853;45.426;9.206;2022-11-24T10:25:24;13.10;48.60
32394;DHT22;18853;45.426;9.206;2022-11-24T10:27:59;13.00;48.80
32394;DHT22;18853;45.426;9.206;2022-11-24T10:30:26;13.10;48.40
32394;DHT22;18853;45.426;9.206;2022-11-24T10:33:05;13.10;48.40
32394;DHT22;18853;45.426;9.206;2022-11-24T10:35:42;13.20;48.20
32394;DHT22;18853;45.426;9.206;2022-11-24T10:40:56;13.20;47.70
32394;DHT22;18853;45.426;9.206;2022-11-24T10:43:25;13.20;47.70
32394;DHT22;18853;45.426;9.206;2022-11-24T10:45:51;13.30;47.50
32394;DHT22;18853;45.426;9.206;2022-11-24T10:48:27;13.30;47.00
32394;DHT22;18853;45.426;9.206;2022-11-24T10:51:17;13.40;46.70
32394;DHT22;18853;45.426;9.206;2022-11-24T10:53:47;13.40;46.70
32394;DHT22;18853;45.426;9.206;2022-11-24T10:56:17;13.40;46.90
32394;DHT22;18853;45.426;9.206;2022-11-24T10:58:42;13.50;46.90
32394;DHT22;18853;45.426;9.206;2022-11-24T11:03:58;13.60;46.50
32394;DHT22;18853;45.426;9.206;2022-11-24T11:06:28;13.60;46.40
32394;DHT22;18853;45.426;9.206;2022-11-24T11:11:32;13.70;46.10
32394;DHT22;18853;45.426;9.206;2022-11-24T11:14:03;13.70;46.20
32394;DHT22;18853;45.426;9.206;2022-11-24T11:16:39;13.70;46.20
32394;DHT22;18853;45.426;9.206;2022-11-24T11:19:36;13.80;46.30
32394;DHT22;18853;45.426;9.206;2022-11-24T11:22:26;13.90;46.30
32394;DHT22;18853;45.426;9.206;2022-11-24T11:27:27;14.00;46.60
32394;DHT22;18853;45.426;9.206;2022-11-24T11:29:52;14.00;46.40
32394;DHT22;18853;45.426;9.206;2022-11-24T11:32:26;14.10;45.80
32394;DHT22;18853;45.426;9.206;2022-11-24T11:34:56;14.30;45.90
32394;DHT22;18853;45.426;9.206;2022-11-24T11:37:25;14.30;44.80
32394;DHT22;18853;45.426;9.206;2022-11-24T11:39:53;14.50;44.40
32394;DHT22;18853;45.426;9.206;2022-11-24T11:50:15;15.10;43.00
32394;DHT22;18853;45.426;9.206;2022-11-24T11:58:04;15.60;43.20
32394;DHT22;18853;45.426;9.206;2022-11-24T12:00:35;15.70;43.10
32394;DHT22;18853;45.426;9.206;2022-11-24T12:03:40;15.80;43.20
32394;DHT22;18853;45.426;9.206;2022-11-24T12:12:24;16.20;43.00
32394;DHT22;18853;45.426;9.206;2022-11-24T12:15:24;16.40;42.40
32394;DHT22;18853;45.426;9.206;2022-11-24T12:21:19;16.50;42.30
32394;DHT22;18853;45.426;9.206;2022-11-24T12:26:36;16.90;42.30
32394;DHT22;18853;45.426;9.206;2022-11-24T12:34:41;17.20;41.60
32394;DHT22;18853;45.426;9.206;2022-11-24T12:45:09;17.70;40.80
32394;DHT22;18853;45.426;9.206;2022-11-24T12:50:37;17.90;40.20
32394;DHT22;18853;45.426;9.206;2022-11-24T12:53:31;18.10;40.50
32394;DHT22;18853;45.426;9.206;2022-11-24T12:56:06;18.20;39.40
32394;DHT22;18853;45.426;9.206;2022-11-24T12:58:54;18.30;39.80
32394;DHT22;18853;45.426;9.206;2022-11-24T13:01:35;18.50;39.20
32394;DHT22;18853;45.426;9.206;2022-11-24T13:04:16;18.60;38.80
32394;DHT22;18853;45.426;9.206;2022-11-24T13:06:55;18.80;39.10
32394;DHT22;18853;45.426;9.206;2022-11-24T13:09:23;18.90;38.50
32394;DHT22;18853;45.426;9.206;2022-11-24T13:11:51;19.10;38.60
32394;DHT22;18853;45.426;9.206;2022-11-24T13:14:30;19.20;38.40
32394;DHT22;18853;45.426;9.206;2022-11-24T13:17:00;19.40;37.50
32394;DHT22;18853;45.426;9.206;2022-11-24T13:19:33;19.40;37.70
32394;DHT22;18853;45.426;9.206;2022-11-24T13:24:32;19.80;37.60
32394;DHT22;18853;45.426;9.206;2022-11-24T13:29:39;20.00;37.40
32394;DHT22;18853;45.426;9.206;2022-11-24T13:40:00;20.70;35.90
32394;DHT22;18853;45.426;9.206;2022-11-24T13:42:28;20.80;35.60
32394;DHT22;18853;45.426;9.206;2022-11-24T13:44:54;20.90;35.40
32394;DHT22;18853;45.426;9.206;2022-11-24T13:49:55;21.10;34.40
32394;DHT22;18853;45.426;9.206;2022-11-24T13:57:43;21.40;34.10
32394;DHT22;18853;45.426;9.206;2022-11-24T14:00:29;21.40;33.90
32394;DHT22;18853;45.426;9.206;2022-11-24T14:03:17;21.30;33.30
32394;DHT22;18853;45.426;9.206;2022-11-24T14:05:48;21.40;34.00
32394;DHT22;18853;45.426;9.206;2022-11-24T14:08:23;21.50;33.80
32394;DHT22;18853;45.426;9.206;2022-11-24T14:10:50;21.60;33.40
32394;DHT22;18853;45.426;9.206;2022-11-24T14:16:15;21.70;32.90
32394;DHT22;18853;45.426;9.206;2022-11-24T14:18:43;21.80;32.40
32394;DHT22;18853;45.426;9.206;2022-11-24T14:21:26;21.70;33.00
32394;DHT22;18853;45.426;9.206;2022-11-24T14:23:55;21.80;32.30
32394;DHT22;18853;45.426;9.206;2022-11-24T14:26:32;21.80;32.80
32394;DHT22;18853;45.426;9.206;2022-11-24T14:31:35;21.80;32.60
32394;DHT22;18853;45.426;9.206;2022-11-24T14:36:36;21.80;32.70
32394;DHT22;18853;45.426;9.206;2022-11-24T14:39:02;21.80;33.50
32394;DHT22;18853;45.426;9.206;2022-11-24T14:41:28;21.80;33.80
32394;DHT22;18853;45.426;9.206;2022-11-24T14:46:35;21.70;34.70
32394;DHT22;18853;45.426;9.206;2022-11-24T14:49:01;21.50;35.60
32394;DHT22;18853;45.426;9.206;2022-11-24T14:51:35;21.20;35.90
32394;DHT22;18853;45.426;9.206;2022-11-24T14:54:06;20.90;35.20
32394;DHT22;18853;45.426;9.206;2022-11-24T14:56:38;20.60;35.50
32394;DHT22;18853;45.426;9.206;2022-11-24T14:59:19;20.30;36.00
32394;DHT22;18853;45.426;9.206;2022-11-24T15:01:46;20.10;36.00
32394;DHT22;18853;45.426;9.206;2022-11-24T15:04:19;19.90;36.90
32394;DHT22;18853;45.426;9.206;2022-11-24T15:06:47;19.70;37.90
32394;DHT22;18853;45.426;9.206;2022-11-24T15:09:28;19.50;38.10
32394;DHT22;18853;45.426;9.206;2022-11-24T15:11:54;19.40;38.00
32394;DHT22;18853;45.426;9.206;2022-11-24T15:14:47;19.20;39.50
32394;DHT22;18853;45.426;9.206;2022-11-24T15:17:20;19.20;40.00
32394;DHT22;18853;45.426;9.206;2022-11-24T15:19:53;19.00;41.00
32394;DHT22;18853;45.426;9.206;2022-11-24T15:24:58;18.80;40.80
32394;DHT22;18853;45.426;9.206;2022-11-24T15:27:24;18.70;40.60
32394;DHT22;18853;45.426;9.206;2022-11-24T15:29:50;18.70;40.60
32394;DHT22;18853;45.426;9.206;2022-11-24T15:32:15;18.60;40.40
32394;DHT22;18853;45.426;9.206;2022-11-24T15:34:41;18.60;40.80
32394;DHT22;18853;45.426;9.206;2022-11-24T15:37:08;18.60;41.40
32394;DHT22;18853;45.426;9.206;2022-11-24T15:39:33;18.50;42.40
32394;DHT22;18853;45.426;9.206;2022-11-24T15:42:02;18.40;42.80
32394;DHT22;18853;45.426;9.206;2022-11-24T15:44:28;18.20;43.20
32394;DHT22;18853;45.426;9.206;2022-11-24T15:46:53;18.10;43.50
32394;DHT22;18853;45.426;9.206;2022-11-24T15:49:20;17.90;43.70
32394;DHT22;18853;45.426;9.206;2022-11-24T15:51:46;17.80;43.60
32394;DHT22;18853;45.426;9.206;2022-11-24T15:54:14;17.80;43.50
32394;DHT22;18853;45.426;9.206;2022-11-24T15:56:41;17.80;43.70
32394;DHT22;18853;45.426;9.206;2022-11-24T15:59:12;17.70;44.20
32394;DHT22;18853;45.426;9.206;2022-11-24T16:01:38;17.60;44.70
32394;DHT22;18853;45.426;9.206;2022-11-24T16:04:06;17.50;45.00
32394;DHT22;18853;45.426;9.206;2022-11-24T16:06:32;17.40;45.10
32394;DHT22;18853;45.426;9.206;2022-11-24T16:08:58;17.30;45.30
32394;DHT22;18853;45.426;9.206;2022-11-24T16:11:24;17.20;45.40
32394;DHT22;18853;45.426;9.206;2022-11-24T16:13:50;17.20;45.60
32394;DHT22;18853;45.426;9.206;2022-11-24T16:16:15;17.10;45.70
32394;DHT22;18853;45.426;9.206;2022-11-24T16:18:41;17.10;45.70
32394;DHT22;18853;45.426;9.206;2022-11-24T16:21:09;17.10;45.50
32394;DHT22;18853;45.426;9.206;2022-11-24T16:23:35;17.10;45.50
32394;DHT22;18853;45.426;9.206;2022-11-24T16:26:03;17.10;45.70
32394;DHT22;18853;45.426;9.206;2022-11-24T16:28:28;17.00;45.90
32394;DHT22;18853;45.426;9.206;2022-11-24T16:30:54;17.00;45.90
32394;DHT22;18853;45.426;9.206;2022-11-24T16:33:20;16.90;45.90
32394;DHT22;18853;45.426;9.206;2022-11-24T16:35:46;16.80;46.00
32394;DHT22;18853;45.426;9.206;2022-11-24T16:38:19;16.80;46.50
32394;DHT22;18853;45.426;9.206;2022-11-24T16:40:54;16.70;46.60
32394;DHT22;18853;45.426;9.206;2022-11-24T16:43:23;16.60;46.90
32394;DHT22;18853;45.426;9.206;2022-11-24T16:48:34;16.50;47.20
32394;DHT22;18853;45.426;9.206;2022-11-24T16:51:07;16.40;47.20
32394;DHT22;18853;45.426;9.206;2022-11-24T16:53:34;16.40;47.20
32394;DHT22;18853;45.426;9.206;2022-11-24T16:56:00;16.40;47.30
32394;DHT22;18853;45.426;9.206;2022-11-24T16:58:26;16.40;47.40
32394;DHT22;18853;45.426;9.206;2022-11-24T17:00:51;16.30;47.50
32394;DHT22;18853;45.426;9.206;2022-11-24T17:03:17;16.30;47.70
32394;DHT22;18853;45.426;9.206;2022-11-24T17:05:42;16.30;48.60
32394;DHT22;18853;45.426;9.206;2022-11-24T17:08:08;16.20;48.30
32394;DHT22;18853;45.426;9.206;2022-11-24T17:10:37;16.20;48.40
32394;DHT22;18853;45.426;9.206;2022-11-24T17:13:02;16.20;48.30
32394;DHT22;18853;45.426;9.206;2022-11-24T17:15:28;16.10;48.30
32394;DHT22;18853;45.426;9.206;2022-11-24T17:17:54;16.00;48.30
32394;DHT22;18853;45.426;9.206;2022-11-24T17:20:19;16.00;48.50
32394;DHT22;18853;45.426;9.206;2022-11-24T17:22:45;16.10;48.60
32394;DHT22;18853;45.426;9.206;2022-11-24T17:25:11;16.10;48.60
32394;DHT22;18853;45.426;9.206;2022-11-24T17:27:37;16.00;48.60
32394;DHT22;18853;45.426;9.206;2022-11-24T17:30:03;16.00;48.70
32394;DHT22;18853;45.426;9.206;2022-11-24T17:32:28;16.00;48.70
32394;DHT22;18853;45.426;9.206;2022-11-24T17:34:56;16.00;48.70